createdAt,value
2019-03-23T00:02:18.599Z,66.75
2019-03-23T00:04:49.448Z,67.85
2019-03-23T00:07:20.502Z,65.90
2019-03-23T00:09:51.342Z,66.10
2019-03-23T00:12:22.214Z,64.27
2019-03-23T00:14:52.987Z,62.83
2019-03-23T00:17:24.822Z,64.10
2019-03-23T00:19:56.726Z,62.45
2019-03-23T00:22:27.477Z,62.17
2019-03-23T00:24:58.279Z,60.70
2019-03-23T00:27:29.088Z,62.08
2019-03-23T00:30:00.003Z,60.58
2019-03-23T00:32:30.846Z,60.05
2019-03-23T00:35:02.801Z,57.70
2019-03-23T00:37:33.740Z,57.55
2019-03-23T00:40:10.147Z,56.33
2019-03-23T00:42:41.037Z,56.68
2019-03-23T00:45:11.804Z,55.80
2019-03-23T00:47:42.691Z,55.08
2019-03-23T00:50:14.978Z,56.92
2019-03-23T00:52:45.748Z,54.38
2019-03-23T00:55:16.570Z,55.28
2019-03-23T00:57:47.334Z,53.80
2019-03-23T01:00:18.427Z,51.00
2019-03-23T01:02:49.198Z,51.05
2019-03-23T01:05:20.135Z,51.40
2019-03-23T01:07:50.927Z,49.95
2019-03-23T01:10:21.762Z,50.08
2019-03-23T01:12:52.656Z,50.33
2019-03-23T01:15:23.414Z,51.13
2019-03-23T01:17:54.204Z,47.27
2019-03-23T01:20:24.995Z,49.03
2019-03-23T01:22:55.779Z,47.55
2019-03-23T01:25:26.771Z,47.98
2019-03-23T01:27:57.514Z,47.50
2019-03-23T01:30:28.331Z,44.88
2019-03-23T01:32:59.143Z,47.30
2019-03-23T01:35:29.911Z,45.15
2019-03-23T01:38:00.704Z,45.20
2019-03-23T01:40:36.320Z,45.67
2019-03-23T01:43:06.833Z,44.45
2019-03-23T01:45:37.626Z,42.00
2019-03-23T01:48:08.769Z,42.73
2019-03-23T01:50:39.572Z,41.60
2019-03-23T01:53:10.427Z,41.02
2019-03-23T01:55:41.280Z,42.17
2019-03-23T01:58:12.148Z,41.73
2019-03-23T02:00:42.939Z,41.68
2019-03-23T02:03:13.808Z,41.15
2019-03-23T02:05:44.629Z,41.00
2019-03-23T02:08:15.656Z,40.38
2019-03-23T02:10:47.319Z,38.85
2019-03-23T02:13:18.146Z,39.70
2019-03-23T02:15:49.325Z,39.15
2019-03-23T02:18:20.166Z,38.38
2019-03-23T02:20:50.914Z,38.50
2019-03-23T02:23:21.753Z,37.33
2019-03-23T02:25:52.611Z,37.50
2019-03-23T02:28:23.466Z,36.73
2019-03-23T02:30:54.294Z,36.05
2019-03-23T02:33:25.081Z,35.92
2019-03-23T02:35:55.832Z,35.28
2019-03-23T02:38:26.634Z,34.60
2019-03-23T02:40:57.485Z,35.33
2019-03-23T02:43:28.304Z,34.43
2019-03-23T02:45:59.104Z,33.23
2019-03-23T02:48:29.905Z,35.33
2019-03-23T02:51:01.733Z,33.55
2019-03-23T02:53:32.576Z,33.25
2019-03-23T02:56:03.355Z,32.50
2019-03-23T02:58:34.209Z,33.65
2019-03-23T03:01:05.129Z,32.50
2019-03-23T03:03:37.347Z,30.60
2019-03-23T03:06:08.139Z,31.55
2019-03-23T03:08:39.330Z,32.33
2019-03-23T03:11:11.257Z,31.05
2019-03-23T03:13:42.141Z,30.60
2019-03-23T03:16:13.027Z,30.32
2019-03-23T03:18:43.856Z,29.95
2019-03-23T03:21:14.689Z,30.02
2019-03-23T03:23:45.749Z,29.77
2019-03-23T03:26:16.572Z,28.87
2019-03-23T03:28:47.359Z,27.82
2019-03-23T03:31:20.002Z,28.12
2019-03-23T03:33:50.801Z,27.07
2019-03-23T03:36:21.548Z,27.85
2019-03-23T03:38:52.469Z,28.02
2019-03-23T03:41:23.283Z,27.25
2019-03-23T03:43:54.092Z,26.15
2019-03-23T03:46:24.863Z,26.93
2019-03-23T03:48:55.951Z,26.35
2019-03-23T03:51:26.710Z,26.20
2019-03-23T03:53:57.480Z,25.68
2019-03-23T03:56:28.374Z,25.37
2019-03-23T03:58:59.184Z,25.40
2019-03-23T04:01:30.072Z,25.65
2019-03-23T04:04:00.902Z,25.82
2019-03-23T04:06:31.671Z,25.12
2019-03-23T04:09:02.558Z,25.50
2019-03-23T04:11:33.371Z,23.07
2019-03-23T04:14:04.163Z,24.10
2019-03-23T04:16:34.901Z,24.37
2019-03-23T04:19:05.669Z,23.27
2019-03-23T04:21:36.542Z,21.93
2019-03-23T04:24:07.428Z,25.90
2019-03-23T04:26:39.467Z,22.13
2019-03-23T04:29:10.422Z,21.17
2019-03-23T04:31:41.301Z,21.48
2019-03-23T04:34:14.023Z,21.62
2019-03-23T04:36:44.563Z,21.30
2019-03-23T04:39:15.323Z,20.48
2019-03-23T04:41:46.138Z,21.37
2019-03-23T04:44:16.951Z,21.62
2019-03-23T04:46:47.876Z,20.23
2019-03-23T04:49:20.642Z,19.30
2019-03-23T04:51:51.473Z,20.77
2019-03-23T04:54:22.220Z,20.23
2019-03-23T04:56:52.991Z,20.72
2019-03-23T04:59:21.745Z,19.37
2019-03-23T05:01:52.618Z,20.20
2019-03-23T05:04:23.406Z,19.35
2019-03-23T05:06:54.199Z,18.23
2019-03-23T05:09:25.047Z,18.87
2019-03-23T05:11:55.880Z,18.30
2019-03-23T05:14:26.638Z,18.82
2019-03-23T05:16:57.493Z,18.05
2019-03-23T05:19:28.232Z,19.60
2019-03-23T05:21:59.068Z,18.48
2019-03-23T05:24:29.807Z,18.82
2019-03-23T05:27:00.645Z,17.57
2019-03-23T05:29:31.464Z,17.25
2019-03-23T05:32:02.271Z,18.77
2019-03-23T05:34:34.500Z,17.07
2019-03-23T05:37:05.886Z,17.67
2019-03-23T05:39:36.672Z,17.12
2019-03-23T05:42:07.471Z,16.65
2019-03-23T05:44:38.307Z,16.15
2019-03-23T05:47:09.118Z,16.35
2019-03-23T05:49:39.905Z,16.67
2019-03-23T05:52:11.818Z,16.50
2019-03-23T05:54:42.572Z,16.05
2019-03-23T05:57:13.363Z,15.88
2019-03-23T05:59:44.153Z,16.55
2019-03-23T06:02:14.925Z,14.65
2019-03-23T06:04:45.670Z,15.15
2019-03-23T06:07:16.485Z,16.73
2019-03-23T06:09:47.250Z,15.68
2019-03-23T06:12:18.026Z,15.05
2019-03-23T06:14:48.848Z,14.63
2019-03-23T06:17:19.617Z,14.58
2019-03-23T06:19:50.426Z,14.05
2019-03-23T06:22:21.191Z,14.40
2019-03-23T06:24:51.997Z,15.08
2019-03-23T06:27:23.880Z,14.13
2019-03-23T06:29:54.641Z,14.03
2019-03-23T06:32:25.523Z,13.13
2019-03-23T06:34:56.273Z,14.63
2019-03-23T06:37:27.075Z,14.28
2019-03-23T06:39:57.905Z,14.03
2019-03-23T06:42:28.725Z,13.70
2019-03-23T06:44:59.608Z,13.50
2019-03-23T06:47:30.359Z,12.88
2019-03-23T06:50:01.119Z,12.82
2019-03-23T06:52:31.924Z,13.00
2019-03-23T06:55:02.960Z,12.60
2019-03-23T06:57:33.771Z,12.95
2019-03-23T07:00:05.652Z,13.18
2019-03-23T07:02:36.431Z,12.47
2019-03-23T07:05:07.996Z,11.95
2019-03-23T07:07:38.803Z,11.78
2019-03-23T07:10:10.072Z,13.40
2019-03-23T07:12:40.858Z,12.55
2019-03-23T07:15:19.882Z,25.50
2019-03-23T07:17:44.225Z,38.50
2019-03-23T07:20:15.070Z,30.45
2019-03-23T07:22:45.867Z,28.55
2019-03-23T07:25:16.660Z,25.92
2019-03-23T07:27:47.423Z,26.23
2019-03-23T07:30:18.242Z,28.00
2019-03-23T07:32:49.003Z,30.48
2019-03-23T07:35:20.810Z,14.68
2019-03-23T07:37:51.627Z,18.62
2019-03-23T07:40:22.349Z,28.23
2019-03-23T07:42:55.123Z,26.80
2019-03-23T07:45:25.842Z,27.27
2019-03-23T07:47:56.543Z,25.70
2019-03-23T07:50:28.400Z,29.23
2019-03-23T07:52:59.106Z,24.60
2019-03-23T07:55:29.839Z,23.52
2019-03-23T07:58:00.535Z,25.12
2019-03-23T08:00:31.771Z,23.75
2019-03-23T08:03:02.540Z,21.65
2019-03-23T08:05:36.658Z,20.35
2019-03-23T08:08:07.366Z,17.85
2019-03-23T08:10:38.185Z,16.05
2019-03-23T08:13:08.926Z,14.53
2019-03-23T08:15:39.646Z,15.93
2019-03-23T08:18:10.452Z,16.73
2019-03-23T08:20:41.169Z,18.23
2019-03-23T08:23:11.939Z,16.32
2019-03-23T08:25:42.696Z,13.98
2019-03-23T08:28:13.496Z,11.48
2019-03-23T08:30:44.341Z,15.30
2019-03-23T08:33:15.397Z,12.47
2019-03-23T08:35:46.214Z,11.48
2019-03-23T08:38:17.055Z,10.60
2019-03-23T08:40:47.913Z,11.55
2019-03-23T08:43:18.778Z,9.75
2019-03-23T08:45:49.667Z,9.55
2019-03-23T08:48:20.440Z,12.35
2019-03-23T08:50:51.358Z,17.62
2019-03-23T08:53:22.222Z,29.72
2019-03-23T08:55:53.093Z,28.98
2019-03-23T08:58:31.340Z,39.30
2019-03-23T09:01:02.213Z,30.25
2019-03-23T09:03:33.063Z,26.60
2019-03-23T09:06:03.905Z,27.07
2019-03-23T09:08:34.816Z,25.40
2019-03-23T09:11:05.885Z,22.98
2019-03-23T09:13:40.836Z,22.37
2019-03-23T09:16:09.336Z,21.60
2019-03-23T09:18:40.110Z,21.12
2019-03-23T09:21:12.882Z,21.65
2019-03-23T09:23:43.543Z,21.37
2019-03-23T09:26:14.467Z,20.92
2019-03-23T09:28:45.297Z,19.60
2019-03-23T09:31:16.218Z,20.08
2019-03-23T09:33:47.012Z,19.30
2019-03-23T09:36:17.843Z,18.40
2019-03-23T09:38:48.740Z,18.95
2019-03-23T09:41:20.819Z,18.75
2019-03-23T09:43:51.628Z,18.05
2019-03-23T09:46:22.439Z,18.37
2019-03-23T09:48:53.280Z,18.85
2019-03-23T09:51:24.114Z,17.05
2019-03-23T09:53:55.772Z,17.17
2019-03-23T09:56:26.579Z,17.55
2019-03-23T09:58:57.893Z,16.62
2019-03-23T10:01:28.650Z,14.13
2019-03-23T10:03:59.447Z,17.60
2019-03-23T10:06:30.197Z,15.08
2019-03-23T10:09:05.812Z,15.58
2019-03-23T10:11:36.694Z,14.80
2019-03-23T10:14:11.000Z,15.00
2019-03-23T10:16:41.832Z,22.20
2019-03-23T10:19:12.605Z,14.35
2019-03-23T10:21:43.497Z,13.45
2019-03-23T10:24:14.278Z,14.28
2019-03-23T10:26:45.086Z,14.05
2019-03-23T10:29:15.858Z,15.95
2019-03-23T10:31:46.719Z,12.53
2019-03-23T10:34:17.536Z,12.43
2019-03-23T10:36:48.418Z,12.43
2019-03-23T10:39:19.237Z,11.70
2019-03-23T10:41:49.988Z,12.80
2019-03-23T10:44:20.726Z,12.75
2019-03-23T10:46:51.498Z,11.25
2019-03-23T10:49:22.262Z,10.72
2019-03-23T10:51:53.031Z,13.03
2019-03-23T10:54:23.785Z,12.70
2019-03-23T10:56:54.564Z,10.18
2019-03-23T10:59:28.027Z,10.82
2019-03-23T11:01:58.875Z,9.85
2019-03-23T11:04:29.727Z,11.50
2019-03-23T11:07:01.813Z,10.50
2019-03-23T11:09:32.682Z,18.95
2019-03-23T11:12:03.458Z,16.50
2019-03-23T11:14:34.207Z,23.07
2019-03-23T11:17:05.065Z,18.40
2019-03-23T11:19:35.816Z,14.75
2019-03-23T11:22:06.753Z,16.85
2019-03-23T11:24:38.016Z,14.55
2019-03-23T11:27:08.799Z,14.95
2019-03-23T11:29:39.664Z,18.92
2019-03-23T11:32:10.523Z,14.28
2019-03-23T11:34:41.343Z,16.42
2019-03-23T11:37:12.234Z,14.98
2019-03-23T11:39:43.033Z,13.13
2019-03-23T11:42:13.859Z,11.88
2019-03-23T11:44:44.643Z,16.90
2019-03-23T11:47:15.458Z,14.30
2019-03-23T11:49:46.273Z,10.65
2019-03-23T11:52:17.078Z,11.80
2019-03-23T11:54:48.851Z,12.70
2019-03-23T11:57:19.691Z,12.30
2019-03-23T11:59:50.440Z,12.80
2019-03-23T12:02:21.434Z,14.20
2019-03-23T12:04:52.181Z,11.28
2019-03-23T12:07:22.971Z,12.70
2019-03-23T12:09:55.953Z,12.70
2019-03-23T12:12:27.325Z,12.98
2019-03-23T12:14:58.098Z,12.53
2019-03-23T12:17:28.921Z,10.90
2019-03-23T12:19:59.659Z,11.43
2019-03-23T12:22:30.540Z,10.85
2019-03-23T12:25:01.287Z,9.05
2019-03-23T12:27:32.285Z,10.03
2019-03-23T12:30:07.107Z,10.13
2019-03-23T12:32:36.897Z,10.15
2019-03-23T12:35:08.329Z,10.25
2019-03-23T12:37:39.140Z,10.93
2019-03-23T12:40:10.808Z,11.68
2019-03-23T12:42:41.654Z,8.33
2019-03-23T12:45:12.480Z,10.53
2019-03-23T12:47:43.226Z,12.63
2019-03-23T12:50:14.225Z,11.25
2019-03-23T12:52:46.241Z,11.57
2019-03-23T12:55:17.023Z,9.65
2019-03-23T12:57:47.806Z,9.80
2019-03-23T13:00:18.684Z,10.50
2019-03-23T13:02:49.475Z,10.35
2019-03-23T13:05:20.276Z,10.25
2019-03-23T13:07:51.212Z,10.58
2019-03-23T13:10:21.992Z,9.75
2019-03-23T13:12:52.910Z,9.50
2019-03-23T13:15:23.606Z,11.03
2019-03-23T13:17:54.374Z,12.65
2019-03-23T13:20:25.272Z,14.30
2019-03-23T13:22:56.174Z,8.60
2019-03-23T13:25:26.957Z,11.65
2019-03-23T13:27:58.043Z,11.60
2019-03-23T13:30:28.795Z,9.28
2019-03-23T13:33:01.131Z,7.55
2019-03-23T13:35:31.908Z,9.73
2019-03-23T13:38:02.672Z,10.75
2019-03-23T13:40:33.424Z,10.18
2019-03-23T13:43:04.233Z,10.35
2019-03-23T13:45:42.424Z,7.42
2019-03-23T13:48:07.575Z,10.72
2019-03-23T13:50:38.359Z,10.05
2019-03-23T13:53:09.266Z,8.13
2019-03-23T13:55:40.011Z,9.95
2019-03-23T13:58:14.923Z,10.40
2019-03-23T14:00:45.675Z,9.13
2019-03-23T14:03:16.452Z,10.08
2019-03-23T14:05:47.225Z,9.03
2019-03-23T14:08:18.360Z,10.08
2019-03-23T14:10:50.221Z,7.53
2019-03-23T14:13:21.069Z,8.00
2019-03-23T14:15:51.814Z,6.70
2019-03-23T14:18:22.810Z,7.03
2019-03-23T14:20:53.874Z,9.00
2019-03-23T14:23:24.616Z,6.92
2019-03-23T14:25:55.398Z,6.90
2019-03-23T14:28:26.166Z,8.40
2019-03-23T14:30:56.911Z,7.90
2019-03-23T14:33:27.701Z,6.75
2019-03-23T14:35:58.646Z,7.25
2019-03-23T14:38:30.557Z,7.20
2019-03-23T14:41:02.605Z,11.05
2019-03-23T14:43:34.365Z,6.67
2019-03-23T14:46:05.160Z,7.00
2019-03-23T14:48:35.962Z,7.17
2019-03-23T14:51:06.776Z,9.98
2019-03-23T14:53:37.522Z,6.17
2019-03-23T14:56:08.454Z,6.47
2019-03-23T14:58:39.173Z,7.62
2019-03-23T15:01:09.981Z,8.03
2019-03-23T15:03:40.730Z,6.47
2019-03-23T15:06:11.611Z,7.70
2019-03-23T15:08:42.352Z,6.20
2019-03-23T15:11:13.223Z,9.25
2019-03-23T15:13:44.040Z,7.70
2019-03-23T15:16:14.804Z,6.47
2019-03-23T15:18:45.589Z,6.50
2019-03-23T15:21:16.345Z,6.28
2019-03-23T15:23:47.221Z,6.28
2019-03-23T15:26:18.157Z,6.97
2019-03-23T15:28:49.160Z,7.30
2019-03-23T15:31:19.988Z,7.10
2019-03-23T15:33:50.760Z,6.45
2019-03-23T15:36:21.710Z,6.92
2019-03-23T15:38:54.285Z,6.72
2019-03-23T15:41:25.080Z,6.97
2019-03-23T15:43:55.833Z,6.75
2019-03-23T15:46:26.754Z,6.37
2019-03-23T15:48:57.521Z,6.75
2019-03-23T15:51:28.311Z,6.60
2019-03-23T15:53:59.302Z,8.35
2019-03-23T15:56:30.137Z,5.37
2019-03-23T16:01:36.680Z,5.55
2019-03-23T16:04:07.568Z,5.92
2019-03-23T16:06:38.437Z,6.37
2019-03-23T16:09:09.188Z,6.12
2019-03-23T16:11:40.012Z,5.62
2019-03-23T16:14:10.897Z,6.45
2019-03-23T16:16:41.627Z,5.55
2019-03-23T16:19:13.438Z,5.92
2019-03-23T16:21:44.164Z,5.75
2019-03-23T16:24:14.979Z,6.20
2019-03-23T16:26:46.018Z,5.85
2019-03-23T16:29:16.942Z,5.90
2019-03-23T16:31:47.757Z,5.83
2019-03-23T16:34:19.945Z,5.17
2019-03-23T16:36:50.713Z,5.65
2019-03-23T16:39:21.551Z,7.33
2019-03-23T16:41:52.362Z,6.08
2019-03-23T16:44:23.511Z,21.65
2019-03-23T16:46:54.328Z,20.57
2019-03-23T16:49:25.132Z,13.75
2019-03-23T16:51:55.909Z,15.83
2019-03-23T16:54:26.715Z,13.08
2019-03-23T16:56:57.590Z,16.93
2019-03-23T16:59:28.448Z,14.80
2019-03-23T17:02:00.414Z,14.80
2019-03-23T17:04:31.260Z,13.90
2019-03-23T17:07:02.207Z,17.25
2019-03-23T17:09:33.093Z,18.32
2019-03-23T17:12:04.017Z,20.62
2019-03-23T17:14:34.813Z,17.92
2019-03-23T17:17:05.702Z,17.70
2019-03-23T17:19:36.539Z,18.12
2019-03-23T17:22:07.413Z,16.42
2019-03-23T17:24:38.221Z,15.90
2019-03-23T17:27:09.039Z,14.05
2019-03-23T17:29:39.923Z,30.55
2019-03-23T17:32:10.741Z,30.70
2019-03-23T17:34:42.020Z,19.62
2019-03-23T17:37:12.853Z,20.35
2019-03-23T17:39:43.674Z,18.05
2019-03-23T17:42:14.521Z,19.00
2019-03-23T17:44:46.204Z,17.70
2019-03-23T17:47:17.327Z,17.35
2019-03-23T17:49:48.252Z,16.93
2019-03-23T17:52:20.153Z,22.75
2019-03-23T17:54:51.069Z,24.12
2019-03-23T17:57:23.133Z,18.87
2019-03-23T17:59:55.208Z,18.52
2019-03-23T18:02:25.976Z,18.05
2019-03-23T18:04:56.961Z,17.87
2019-03-23T18:07:27.778Z,17.00
2019-03-23T18:09:58.705Z,22.95
2019-03-23T18:12:29.463Z,16.55
2019-03-23T18:15:00.425Z,16.57
2019-03-23T18:17:31.270Z,18.17
2019-03-23T18:20:02.220Z,16.77
2019-03-23T18:22:33.930Z,17.20
2019-03-23T18:25:05.889Z,17.12
2019-03-23T18:27:36.728Z,16.48
2019-03-23T18:30:23.009Z,15.68
2019-03-23T18:32:53.773Z,17.12
2019-03-23T18:35:24.635Z,19.57
2019-03-23T18:37:55.538Z,20.65
2019-03-23T18:40:26.365Z,22.42
2019-03-23T18:42:57.254Z,24.67
2019-03-23T18:45:28.040Z,23.77
2019-03-23T18:47:58.817Z,23.77
2019-03-23T18:50:29.636Z,21.68
2019-03-23T18:53:00.487Z,24.65
2019-03-23T18:55:31.428Z,22.00
2019-03-23T18:58:02.311Z,21.25
2019-03-23T19:00:43.324Z,21.42
2019-03-23T19:03:14.194Z,23.83
2019-03-23T19:05:45.010Z,24.35
2019-03-23T19:08:15.917Z,25.52
2019-03-23T19:10:46.753Z,23.45
2019-03-23T19:13:18.931Z,26.10
2019-03-23T19:15:49.668Z,25.43
2019-03-23T19:18:20.500Z,27.35
2019-03-23T19:20:51.466Z,27.22
2019-03-23T19:23:22.348Z,27.45
2019-03-23T19:25:53.391Z,28.80
2019-03-23T19:28:24.341Z,27.87
2019-03-23T19:30:55.280Z,28.52
2019-03-23T19:33:26.193Z,30.15
2019-03-23T19:35:56.962Z,28.98
2019-03-23T19:38:27.815Z,31.07
2019-03-23T19:40:58.592Z,29.82
2019-03-23T19:43:29.681Z,33.20
2019-03-23T19:46:01.521Z,32.23
2019-03-23T19:48:32.797Z,34.03
2019-03-23T19:51:03.926Z,31.07
2019-03-23T19:53:34.718Z,32.58
2019-03-23T19:56:05.580Z,31.62
2019-03-23T19:58:36.614Z,31.23
2019-03-23T20:01:07.402Z,34.05
2019-03-23T20:03:38.665Z,34.45
2019-03-23T20:06:09.506Z,32.23
2019-03-23T20:08:42.289Z,36.08
2019-03-23T20:11:15.943Z,30.55
2019-03-23T20:13:46.715Z,32.15
2019-03-23T20:16:17.617Z,29.37
2019-03-23T20:18:49.806Z,30.68
2019-03-23T20:21:20.685Z,31.12
2019-03-23T20:23:51.471Z,29.27
2019-03-23T20:26:23.407Z,25.80
2019-03-23T20:28:54.495Z,28.62
2019-03-23T20:31:25.264Z,28.10
2019-03-23T20:33:57.556Z,29.20
2019-03-23T20:36:28.366Z,30.90
2019-03-23T20:38:59.567Z,29.42
2019-03-23T20:41:30.420Z,30.32
2019-03-23T20:44:09.002Z,31.77
2019-03-23T20:46:33.715Z,30.55
2019-03-23T20:49:05.159Z,30.45
2019-03-23T20:51:36.036Z,29.67
2019-03-23T20:54:06.836Z,30.08
2019-03-23T20:56:39.423Z,31.45
2019-03-23T20:59:10.183Z,31.35
2019-03-23T21:01:41.114Z,28.40
2019-03-23T21:04:11.865Z,27.87
2019-03-23T21:06:42.637Z,30.88
2019-03-23T21:09:13.445Z,28.90
2019-03-23T21:11:46.579Z,29.85
2019-03-23T21:14:20.496Z,31.30
2019-03-23T21:16:49.891Z,28.92
2019-03-23T21:19:20.753Z,29.50
2019-03-23T21:21:51.570Z,28.32
2019-03-23T21:24:22.327Z,28.47
2019-03-23T21:26:53.209Z,28.52
2019-03-23T21:29:24.039Z,29.00
2019-03-23T21:31:54.813Z,28.23
2019-03-23T21:34:25.708Z,29.05
2019-03-23T21:36:56.442Z,28.55
2019-03-23T21:39:27.297Z,30.68
2019-03-23T21:41:58.103Z,29.82
2019-03-23T21:44:31.163Z,29.10
2019-03-23T21:47:02.770Z,28.25
2019-03-23T21:49:33.696Z,28.90
2019-03-23T21:52:04.579Z,28.57
2019-03-23T21:54:35.384Z,27.50
2019-03-23T21:57:06.218Z,29.95
2019-03-23T21:59:37.051Z,27.90
2019-03-23T22:02:07.832Z,29.57
2019-03-23T22:04:38.637Z,27.95
2019-03-23T22:07:09.467Z,27.52
2019-03-23T22:09:40.253Z,27.70
2019-03-23T22:12:10.992Z,27.45
2019-03-23T22:14:42.149Z,26.85
2019-03-23T22:17:13.912Z,26.85
2019-03-23T22:19:44.752Z,27.70
2019-03-23T22:22:15.614Z,28.07
2019-03-23T22:24:46.379Z,26.70
2019-03-23T22:27:19.085Z,27.17
2019-03-23T22:29:49.636Z,27.75
2019-03-23T22:32:20.415Z,27.90
2019-03-23T22:34:51.253Z,28.05
2019-03-23T22:37:22.108Z,31.30
2019-03-23T22:39:53.050Z,29.40
2019-03-23T22:42:23.933Z,31.23
2019-03-23T22:44:54.796Z,31.27
2019-03-23T22:47:25.616Z,29.15
2019-03-23T22:49:56.562Z,29.45
2019-03-23T22:52:27.368Z,30.75
2019-03-23T22:54:58.210Z,30.68
2019-03-23T22:57:29.084Z,30.32
2019-03-23T22:59:59.828Z,33.05
2019-03-23T23:02:33.357Z,33.92
2019-03-23T23:05:04.251Z,32.30
2019-03-23T23:07:35.100Z,32.05
2019-03-23T23:10:06.601Z,34.10
2019-03-23T23:12:37.467Z,33.08
2019-03-23T23:15:08.309Z,30.02
2019-03-23T23:17:40.153Z,29.45
2019-03-23T23:20:10.951Z,29.55
2019-03-23T23:22:41.730Z,30.48
2019-03-23T23:25:13.500Z,30.60
2019-03-23T23:27:44.370Z,30.75
2019-03-23T23:30:15.195Z,30.05
2019-03-23T23:32:46.030Z,29.63
2019-03-23T23:35:16.869Z,29.80
2019-03-23T23:37:47.694Z,29.95
2019-03-23T23:40:18.573Z,28.27
2019-03-23T23:42:52.438Z,28.80
2019-03-23T23:45:23.348Z,30.48
2019-03-23T23:47:54.189Z,29.70
2019-03-23T23:50:25.025Z,30.17
2019-03-23T23:52:55.877Z,29.65
2019-03-23T23:55:26.639Z,28.60
2019-03-23T23:57:57.540Z,30.23
